TimeHST,TemperatureF,Dew PointF,Humidity,Sea Level PressureIn,VisibilityMPH,Wind Direction,Wind SpeedMPH,Gust SpeedMPH,PrecipitationIn,Events,Conditions,WindDirDegrees,DateUTC
12:53 AM,75.0,68.0,79,30.11,10.0,ENE,13.8,-,N/A,,Mostly Cloudy,70,2012-05-17 10:53:00
1:07 AM,73.4,66.2,78,30.11,10.0,East,17.3,23.0,N/A,,Mostly Cloudy,80,2012-05-17 11:07:00
1:16 AM,73.4,66.2,78,30.11,10.0,ENE,13.8,-,N/A,,Mostly Cloudy,70,2012-05-17 11:16:00
1:53 AM,75.0,68.0,79,30.10,10.0,ENE,13.8,-,N/A,,Overcast,70,2012-05-17 11:53:00
2:53 AM,73.9,66.0,76,30.09,10.0,East,13.8,-,N/A,,Mostly Cloudy,80,2012-05-17 12:53:00
3:53 AM,73.9,66.0,76,30.09,10.0,East,12.7,-,0.01,,Overcast,90,2012-05-17 13:53:00
4:53 AM,73.9,66.0,76,30.10,10.0,East,18.4,-,N/A,,Scattered Clouds,90,2012-05-17 14:53:00
5:05 AM,73.4,66.2,78,30.11,10.0,East,15.0,23.0,N/A,,Mostly Cloudy,90,2012-05-17 15:05:00
5:15 AM,73.4,66.2,78,30.11,10.0,East,17.3,-,N/A,,Partly Cloudy,80,2012-05-17 15:15:00
5:53 AM,73.9,66.9,79,30.12,10.0,East,17.3,-,N/A,,Overcast,80,2012-05-17 15:53:00
6:53 AM,75.0,66.0,73,30.13,10.0,East,10.4,-,N/A,,Scattered Clouds,80,2012-05-17 16:53:00
7:53 AM,77.0,64.9,66,30.14,10.0,East,11.5,-,N/A,,Partly Cloudy,80,2012-05-17 17:53:00
8:53 AM,79.0,64.9,62,30.15,10.0,East,13.8,-,N/A,,Partly Cloudy,80,2012-05-17 18:53:00
9:53 AM,80.1,66.0,62,30.15,10.0,ENE,11.5,-,N/A,,Partly Cloudy,70,2012-05-17 19:53:00
10:53 AM,80.1,66.9,64,30.14,10.0,ENE,12.7,-,N/A,,Mostly Cloudy,60,2012-05-17 20:53:00
11:53 AM,80.1,66.0,62,30.13,10.0,NE,12.7,-,N/A,,Mostly Cloudy,50,2012-05-17 21:53:00
12:53 PM,82.0,66.0,58,30.12,10.0,NE,15.0,-,N/A,,Partly Cloudy,50,2012-05-17 22:53:00
1:53 PM,80.1,64.9,60,30.11,10.0,NE,16.1,-,N/A,,Partly Cloudy,40,2012-05-17 23:53:00
2:53 PM,81.0,64.0,56,30.09,10.0,NE,15.0,-,N/A,,Partly Cloudy,50,2012-05-18 00:53:00
3:53 PM,80.1,66.0,62,30.09,10.0,NE,13.8,-,N/A,,Scattered Clouds,50,2012-05-18 01:53:00
4:53 PM,78.1,66.0,66,30.09,10.0,NE,12.7,-,N/A,,Mostly Cloudy,40,2012-05-18 02:53:00
5:53 PM,77.0,66.0,69,30.09,10.0,NE,12.7,-,N/A,,Scattered Clouds,50,2012-05-18 03:53:00
6:53 PM,75.9,66.0,71,30.10,10.0,ENE,15.0,-,N/A,,Overcast,60,2012-05-18 04:53:00
7:53 PM,72.0,66.9,84,30.12,10.0,NNE,10.4,-,0.00,,Mostly Cloudy,20,2012-05-18 05:53:00
8:53 PM,73.0,66.9,81,30.14,9.0,ENE,16.1,26.5,0.00,Rain,Light Rain,60,2012-05-18 06:53:00
9:53 PM,72.0,68.0,87,30.15,10.0,NE,15.0,-,0.02,,Mostly Cloudy,40,2012-05-18 07:53:00
10:53 PM,73.9,68.0,82,30.16,10.0,ENE,15.0,-,N/A,,Overcast,70,2012-05-18 08:53:00
11:53 PM,73.9,68.0,82,30.15,10.0,ENE,13.8,-,N/A,,Overcast,70,2012-05-18 09:53:00